Southern Ontario METAR Reports

CYSN - St.Catharines
Updated: 03/18/2019 9:00pm
NOT Current
Partly cloudy
Partly cloudy
 Wind from WNW
Wind: WNW 13 km/h
Temperature: 1°C
Wind Chill: -3°C
Dew Point: -6°C
Humidity: 60%
Barometer: 1027.1 hPa
Clouds: Partly cloudy
Visibility: 24 km
Cloud details: Partly cloudy 2987 m
2019/03/19 01:00 CYSN 190100Z 29007KT 15SM SCT098 01/M06 A3033 RMK AC3 LAST STFD OBS/NEXT 19 1100UTC SLP276
CYHM - Hamilton
Updated: 03/19/2019 2:00am
Partly cloudy
Partly cloudy
 Wind from SW
Wind: SW 13 km/h
Temperature: -3°C
Wind Chill: -7°C
Dew Point: -4°C
Humidity: 93%
Barometer: 1026.8 hPa
Clouds: Partly cloudy
Visibility: 24 km
Cloud details: Few Clouds 1219 m
Partly cloudy 2438 m
2019/03/19 06:00 CYHM 190600Z 23007KT 15SM FEW040 SCT080 M03/M04 A3032 RMK SC1AC2 SLP279
 
CYYZ - Toronto
Updated: 03/19/2019 2:07am
Mostly cloudy
Mostly cloudy
 Wind from W
Wind: W 9 km/h
Temperature: -2°C
Wind Chill: -6°C
Dew Point: -7°C
Humidity: 69%
Barometer: 1027.4 hPa
Clouds: Mostly cloudy
Visibility: 24 km
Cloud details: Partly cloudy 1158 m
Mostly cloudy 2134 m
2019/03/19 06:07 CYYZ 190607Z 27005KT 15SM SCT038 BKN070 M02/M07 A3034 RMK SC4AC3 SLP283
CYKF - Waterloo
Updated: 03/19/2019 2:39am
Light snow, Overcast
Light snow, Overcast
 Wind from W
Wind: W 6 km/h
Temperature: -2°C
Dew Point: -3°C
Humidity: 93%
Barometer: 1026.8 hPa
Summary: Light Snow
Clouds: Overcast
Visibility: 10 km
Cloud details: Few Clouds 701 m
Mostly cloudy 1372 m
Overcast 2591 m
2019/03/19 06:39 CYKF 190639Z AUTO 28003KT 6SM -SN FEW023 BKN045 OVC085 M02/M03 A3032 RMK SLP282
 
CYXU - London
Updated: 03/19/2019 2:00am
Mostly cloudy
Mostly cloudy
 Wind from SW
Wind: SW 13 km/h
Temperature: 0°C
Wind Chill: -4°C
Dew Point: -6°C
Humidity: 64%
Barometer: 1026.8 hPa
Clouds: Mostly cloudy
Visibility: 24 km
Cloud details: Mostly cloudy 2987 m
2019/03/19 06:00 CYXU 190600Z 23007KT 15SM BKN098 M00/M06 A3032 RMK AC6 SLP280
CYQG - Windsor
Updated: 03/19/2019 2:00am
Clear
Clear
 Wind from WSW
Wind: WSW 11 km/h
Temperature: -1°C
Wind Chill: -5°C
Dew Point: -5°C
Humidity: 75%
Barometer: 1028.4 hPa
Clouds: Clear
Visibility: 14 km
2019/03/19 06:00 CYQG 190600Z AUTO 24006KT 9SM CLR M01/M05 A3037 RMK SLP292
 
CYZR - Sarnia
Updated: 03/19/2019 2:00am
Few Clouds
Few Clouds
 Wind from SSW
Wind: SSW 7 km/h
Temperature: -1°C
Wind Chill: -4°C
Dew Point: -4°C
Humidity: 80%
Barometer: 1027.4 hPa
Clouds: Few Clouds
Visibility: 14 km
Cloud details: Few Clouds 1829 m
2019/03/19 06:00 CYZR 190600Z AUTO 21004KT 9SM FEW060 M01/M04 A3034 RMK SLP285
CYVV - Wiarton
Updated: 03/19/2019 2:00am
Few Clouds
Few Clouds
 Wind from S
Wind: S 7 km/h
Temperature: -4°C
Wind Chill: -7°C
Dew Point: -7°C
Humidity: 80%
Barometer: 1026.1 hPa
Clouds: Few Clouds
Visibility: 24 km
Cloud details: Few Clouds 3658 m
2019/03/19 06:00 CYVV 190600Z 17004KT 15SM FEW120 M04/M07 A3030 RMK AC2 SLP273
 
CYPQ - Peterborough
Updated: 03/19/2019 2:38am
Light snow, Overcast
Light snow, Overcast
 Wind from SSW
Wind: SSW 6 km/h
Temperature: -4°C
Dew Point: -4°C
Humidity: 100%
Barometer: 1027.4 hPa
Summary: Light Snow
Clouds: Overcast
Visibility: 5 km
Cloud details: Partly cloudy 579 m
Overcast 1402 m
2019/03/19 06:38 CYPQ 190638Z AUTO 21003KT 3SM -SN SCT019 OVC046 M04/M04 A3034 RMK SLP285
CYTR - Trenton
Updated: 03/19/2019 2:00am
Mostly cloudy
Mostly cloudy
 Wind from WNW
Wind: WNW 9 km/h
Temperature: -3°C
Wind Chill: -7°C
Dew Point: -6°C
Humidity: 80%
Barometer: 1027.8 hPa
Clouds: Mostly cloudy
Visibility: 24 km
Cloud details: Mostly cloudy 1372 m
Mostly cloudy 3962 m
2019/03/19 06:00 CYTR 190600Z 29005KT 15SM BKN045 BKN130 M03/M06 A3035 RMK SC7AC1 SLP284